Time;durP1;ratioP1;P1;durP2;ratioP2;P2;SDS_P1;SDS_P2;PMS_P1;PMS_P2;Temp;Humidity;BMP_temperature;BMP_pressure;BME280_temperature;BME280_humidity;BME280_pressure;Samples;Min_cycle;Max_cycle;Signal;HPM_P1;HPM_P2
2021/04/19 00:00:12;;;;;;;10.25;8.48;;;;;;;14.36;53.40;100244.13;5036877;28;20049;-82
2021/04/19 00:02:39;;;;;;;10.15;7.85;;;;;;;14.35;53.17;100250.34;5035747;28;20465;-83
2021/04/19 00:05:13;;;;;;;9.73;7.82;;;;;;;14.30;54.58;100253.31;5036463;28;20059;-83
2021/04/19 00:07:40;;;;;;;10.05;7.85;;;;;;;14.28;53.48;100251.72;5086849;22;20052;-85
2021/04/19 00:10:08;;;;;;;9.20;7.32;;;;;;;14.23;53.63;100253.78;5056591;28;20098;-85
2021/04/19 00:12:35;;;;;;;10.20;7.68;;;;;;;14.18;53.56;100260.28;5056488;28;20528;-84
2021/04/19 00:15:02;;;;;;;11.85;7.68;;;;;;;14.12;53.92;100250.06;5056332;28;20049;-84
2021/04/19 00:17:28;;;;;;;9.07;7.55;;;;;;;14.07;53.87;100246.84;5056450;28;20056;-84
2021/04/19 00:19:54;;;;;;;9.05;7.28;;;;;;;14.01;54.15;100236.66;5056578;28;20049;-84
2021/04/19 00:22:20;;;;;;;10.80;7.53;;;;;;;13.94;54.20;100242.34;5056328;28;20456;-84
2021/04/19 00:24:46;;;;;;;9.48;6.78;;;;;;;13.89;54.49;100233.00;5056145;28;20052;-84
2021/04/19 00:27:13;;;;;;;10.98;7.70;;;;;;;13.83;54.48;100239.50;5055205;28;20048;-85
2021/04/19 00:29:39;;;;;;;8.15;7.10;;;;;;;13.78;54.63;100241.59;5056565;28;20460;-85
2021/04/19 00:32:06;;;;;;;9.30;7.60;;;;;;;13.70;54.99;100236.81;5056191;28;20493;-85
2021/04/19 00:34:32;;;;;;;9.60;8.10;;;;;;;13.64;55.04;100235.38;5055607;28;20045;-85
2021/04/19 00:36:58;;;;;;;12.95;7.63;;;;;;;13.58;55.07;100240.22;5055998;28;20049;-85
2021/04/19 00:39:24;;;;;;;10.18;8.25;;;;;;;13.50;55.45;100230.13;5056238;28;20048;-85
2021/04/19 00:41:50;;;;;;;11.70;8.45;;;;;;;13.45;55.45;100240.09;5056381;28;20059;-85
2021/04/19 00:44:16;;;;;;;11.75;8.00;;;;;;;13.37;55.97;100236.13;5055666;28;20053;-85
2021/04/19 00:46:42;;;;;;;9.60;8.23;;;;;;;13.33;56.06;100234.59;5055858;28;20106;-85
2021/04/19 00:49:09;;;;;;;9.38;7.68;;;;;;;13.29;56.22;100227.81;5056377;28;20059;-84
2021/04/19 00:51:36;;;;;;;11.02;8.60;;;;;;;13.28;56.50;100236.69;5056064;28;20418;-84
2021/04/19 00:54:02;;;;;;;9.88;7.72;;;;;;;13.28;56.65;100234.03;5054184;28;20049;-85
2021/04/19 00:56:28;;;;;;;9.20;7.70;;;;;;;13.28;56.62;100244.63;5055624;28;20497;-85
2021/04/19 00:58:54;;;;;;;12.23;7.93;;;;;;;13.28;56.66;100244.63;5054517;28;20045;-85
2021/04/19 01:01:21;;;;;;;10.65;7.78;;;;;;;13.30;56.64;100248.00;5054221;28;20056;-84
2021/04/19 01:03:47;;;;;;;11.75;8.60;;;;;;;13.29;56.80;100233.94;5053918;28;20053;-84
2021/04/19 01:06:13;;;;;;;9.73;8.68;;;;;;;13.28;57.04;100234.88;5053940;28;20045;-85
2021/04/19 01:08:40;;;;;;;10.68;8.60;;;;;;;13.28;57.07;100229.59;5054334;28;20053;-85
2021/04/19 01:11:07;;;;;;;9.55;7.75;;;;;;;13.28;57.13;100226.09;5054666;28;20128;-85
2021/04/19 01:13:33;;;;;;;11.48;8.10;;;;;;;13.26;56.91;100223.56;5054337;28;20045;-85
2021/04/19 01:15:59;;;;;;;9.20;7.63;;;;;;;13.24;56.95;100224.59;5055246;28;20049;-85
2021/04/19 01:18:26;;;;;;;10.55;7.90;;;;;;;13.21;57.09;100219.47;5055272;28;20048;-85
2021/04/19 01:20:52;;;;;;;9.40;7.90;;;;;;;13.16;57.13;100223.25;5055356;28;20076;-85
2021/04/19 01:23:19;;;;;;;10.50;7.97;;;;;;;13.11;57.29;100219.19;5055511;28;20049;-85
2021/04/19 01:25:46;;;;;;;8.15;7.10;;;;;;;13.08;57.21;100222.88;5054607;28;20516;-85
2021/04/19 01:28:13;;;;;;;9.07;7.22;;;;;;;13.05;57.31;100223.06;5055526;28;20041;-84
2021/04/19 01:30:43;;;;;;;8.90;7.82;;;;;;;13.01;58.23;100225.03;5055248;28;20110;-84
2021/04/19 01:33:10;;;;;;;9.10;7.85;;;;;;;13.00;57.60;100218.03;5054043;28;20398;-84
2021/04/19 01:35:37;;;;;;;9.05;7.78;;;;;;;12.99;57.61;100220.78;5054717;28;20053;-84
2021/04/19 01:38:05;;;;;;;9.85;7.85;;;;;;;12.96;57.70;100221.81;5055208;28;20052;-84
2021/04/19 01:40:32;;;;;;;10.18;7.80;;;;;;;12.95;57.91;100217.47;5055043;28;20049;-84
2021/04/19 01:42:59;;;;;;;10.23;7.93;;;;;;;12.94;57.99;100223.72;5054850;28;20053;-84
2021/04/19 01:45:26;;;;;;;9.52;8.23;;;;;;;12.94;57.96;100222.84;5054744;28;20053;-84
2021/04/19 01:47:54;;;;;;;10.88;7.80;;;;;;;12.94;58.26;100228.13;5053756;28;20103;-84
2021/04/19 01:50:23;;;;;;;9.48;7.80;;;;;;;12.95;58.35;100232.47;5054852;28;20060;-84
2021/04/19 01:52:50;;;;;;;10.30;8.52;;;;;;;12.96;58.32;100231.53;5054781;28;20513;-84
2021/04/19 01:55:19;;;;;;;10.23;8.13;;;;;;;12.96;58.54;100234.16;5054442;28;20059;-84
2021/04/19 01:57:59;;;;;;;10.07;8.75;;;;;;;12.95;59.56;100241.25;5054620;28;20457;-84
2021/04/19 02:00:27;;;;;;;9.60;8.60;;;;;;;12.98;58.37;100234.94;5054541;28;20072;-84
2021/04/19 02:03:27;;;;;;;11.20;9.00;;;;;;;12.95;59.46;100232.47;5054476;28;20493;-84
2021/04/19 02:06:24;;;;;;;10.40;8.48;;;;;;;12.94;59.43;100217.56;5054087;28;20045;-84
2021/04/19 02:08:59;;;;;;;11.40;9.23;;;;;;;12.96;59.02;100223.59;5053484;28;20048;-84
2021/04/19 02:11:53;;;;;;;10.55;8.85;;;;;;;12.92;59.14;100225.56;5053499;28;20053;-85
2021/04/19 02:14:29;;;;;;;9.43;8.07;;;;;;;12.92;57.89;100220.28;5052838;28;20052;-84
2021/04/19 02:17:04;;;;;;;10.60;8.63;;;;;;;12.87;57.90;100212.63;5053750;28;20520;-84
2021/04/19 02:19:40;;;;;;;9.90;8.15;;;;;;;12.81;59.26;100214.78;5054356;28;20084;-84
2021/04/19 02:22:29;;;;;;;10.98;8.25;;;;;;;12.75;59.22;100218.66;5054458;28;20052;-84
2021/04/19 02:25:10;;;;;;;12.38;9.05;;;;;;;12.71;59.06;100217.97;5053698;28;20052;-84
2021/04/19 02:27:38;;;;;;;11.10;7.95;;;;;;;12.68;58.09;100214.66;5052977;28;20075;-84
2021/04/19 02:30:13;;;;;;;9.50;8.38;;;;;;;12.62;58.83;100214.09;5054179;28;20049;-84
2021/04/19 02:32:45;;;;;;;9.38;7.45;;;;;;;12.57;59.00;100213.53;5054163;28;20540;-84
2021/04/19 02:35:15;;;;;;;8.65;7.40;;;;;;;12.55;58.64;100217.16;5053723;28;20099;-84
2021/04/19 02:37:43;;;;;;;11.15;7.72;;;;;;;12.51;58.11;100216.50;5053847;28;20142;-84
2021/04/19 02:40:10;;;;;;;9.20;8.20;;;;;;;12.47;58.17;100215.84;5054200;28;20106;-84
2021/04/19 02:42:43;;;;;;;10.18;7.68;;;;;;;12.42;59.35;100222.31;5054199;28;20053;-84
2021/04/19 02:45:12;;;;;;;8.50;7.60;;;;;;;12.41;58.76;100226.72;5052506;28;20064;-84
2021/04/19 02:47:41;;;;;;;9.40;7.75;;;;;;;12.37;58.86;100223.44;5053690;28;20071;-85
2021/04/19 02:50:12;;;;;;;9.02;7.35;;;;;;;12.35;59.31;100211.25;5052603;28;20051;-84
2021/04/19 02:52:39;;;;;;;9.80;7.53;;;;;;;12.33;58.57;100219.25;5052785;28;20441;-84
2021/04/19 02:55:06;;;;;;;7.93;6.07;;;;;;;12.31;58.70;100215.88;5053370;28;20391;-85
2021/04/19 02:57:37;;;;;;;7.18;6.05;;;;;;;12.30;59.26;100216.78;5053403;28;20048;-84
2021/04/19 03:00:05;;;;;;;6.82;5.88;;;;;;;12.32;58.88;100217.56;5053806;28;20049;-84
2021/04/19 03:02:33;;;;;;;7.28;6.00;;;;;;;12.33;58.95;100216.63;5053731;28;20048;-84
2021/04/19 03:05:02;;;;;;;8.18;6.72;;;;;;;12.34;59.29;100220.13;5053093;28;20060;-84
2021/04/19 03:07:34;;;;;;;9.35;6.10;;;;;;;12.36;59.48;100213.81;5053296;28;20059;-85
2021/04/19 03:10:05;;;;;;;7.78;6.25;;;;;;;12.36;59.21;100213.81;5053363;28;20136;-85
2021/04/19 03:12:34;;;;;;;9.13;6.43;;;;;;;12.37;58.69;100209.38;5052593;28;20103;-85
2021/04/19 03:15:06;;;;;;;9.35;7.00;;;;;;;12.36;59.71;100211.16;5051715;28;20053;-85
2021/04/19 03:17:32;;;;;;;8.27;7.05;;;;;;;12.36;58.69;100210.31;5053098;28;20056;-85
2021/04/19 03:20:05;;;;;;;8.65;7.18;;;;;;;12.33;59.64;100210.47;5053429;28;20063;-85
2021/04/19 03:22:34;;;;;;;8.73;7.60;;;;;;;12.32;58.47;100204.38;5052287;28;20102;-85
2021/04/19 03:25:01;;;;;;;8.25;6.75;;;;;;;12.29;58.54;100209.81;5052965;28;20055;-85
2021/04/19 03:27:28;;;;;;;9.88;7.50;;;;;;;12.25;58.78;100217.06;5053320;28;20460;-85
2021/04/19 03:29:57;;;;;;;8.75;7.60;;;;;;;12.22;59.36;100219.88;5052050;28;20045;-84
2021/04/19 03:32:27;;;;;;;8.93;6.97;;;;;;;12.20;59.26;100219.13;5051886;28;20052;-85
2021/04/19 03:34:54;;;;;;;10.43;6.97;;;;;;;12.17;58.72;100216.66;5052476;28;20094;-84
2021/04/19 03:37:25;;;;;;;8.70;6.88;;;;;;;12.12;59.42;100216.88;5053386;28;20083;-84
2021/04/19 03:39:58;;;;;;;8.57;6.82;;;;;;;12.10;59.41;100218.78;5052047;28;20041;-84
2021/04/19 03:42:25;;;;;;;7.63;6.72;;;;;;;12.11;58.42;100222.25;5052906;28;20110;-84
2021/04/19 03:44:54;;;;;;;8.82;7.43;;;;;;;12.07;58.81;100213.66;5052844;28;20452;-84
2021/04/19 03:47:21;;;;;;;8.27;7.18;;;;;;;12.04;58.69;100216.44;5053359;28;20102;-84
2021/04/19 03:49:53;;;;;;;9.95;7.63;;;;;;;12.02;59.36;100218.31;5052949;28;20041;-84
2021/04/19 03:52:37;;;;;;;10.18;7.80;;;;;;;11.95;59.81;100216.94;5051930;28;20056;-85
2021/04/19 03:55:08;;;;;;;10.85;7.70;;;;;;;11.97;59.54;100212.44;5051076;28;20057;-85
2021/04/19 03:57:36;;;;;;;10.20;7.22;;;;;;;11.96;59.34;100216.03;5052768;28;20056;-84
2021/04/19 04:00:13;;;;;;;10.60;7.40;;;;;;;11.91;60.62;100216.28;5052873;28;20052;-84
2021/04/19 04:02:42;;;;;;;8.25;7.25;;;;;;;11.95;59.80;100219.59;5052870;28;20106;-84
2021/04/19 04:05:11;;;;;;;8.43;7.50;;;;;;;11.94;59.55;100221.38;5052300;28;20064;-85
2021/04/19 04:07:39;;;;;;;9.23;7.80;;;;;;;11.93;59.77;100219.66;5051543;28;20086;-84
2021/04/19 04:10:07;;;;;;;8.52;7.15;;;;;;;11.94;59.76;100224.03;5052819;28;20045;-84
2021/04/19 04:12:35;;;;;;;9.02;6.85;;;;;;;11.94;59.73;100220.53;5053003;28;20053;-84
2021/04/19 04:15:03;;;;;;;10.15;7.90;;;;;;;11.95;59.93;100225.72;5051136;28;20413;-85
2021/04/19 04:17:29;;;;;;;12.02;8.65;;;;;;;11.96;59.86;100219.50;5052409;28;20053;-85
2021/04/19 04:19:55;;;;;;;9.75;8.05;;;;;;;11.98;59.76;100222.06;5052705;28;20458;-84
2021/04/19 04:22:22;;;;;;;10.27;8.38;;;;;;;11.99;59.89;100224.63;5052829;28;20049;-85
2021/04/19 04:24:49;;;;;;;9.80;7.82;;;;;;;11.99;59.93;100224.63;5051107;28;20567;-85
2021/04/19 04:27:16;;;;;;;11.38;8.07;;;;;;;12.02;60.10;100228.88;5051438;28;20075;-85
2021/04/19 04:29:42;;;;;;;10.10;8.20;;;;;;;12.03;59.78;100232.38;5052926;28;20044;-85
2021/04/19 04:32:09;;;;;;;10.65;8.13;;;;;;;12.04;59.99;100231.44;5051473;28;20049;-85
2021/04/19 04:34:35;;;;;;;9.02;7.60;;;;;;;12.03;60.05;100235.84;5052664;28;20137;-85
2021/04/19 04:37:02;;;;;;;11.43;8.80;;;;;;;12.03;60.17;100229.75;5056574;28;20455;-84
2021/04/19 04:39:28;;;;;;;10.60;8.18;;;;;;;12.03;60.13;100241.13;5056219;28;20052;-84
2021/04/19 04:41:54;;;;;;;10.93;8.93;;;;;;;12.03;60.17;100232.38;5056149;28;20060;-84
2021/04/19 04:44:42;;;;;;;10.85;8.75;;;;;;;12.01;60.99;100239.50;5055727;28;20053;-85
2021/04/19 04:47:35;;;;;;;10.95;8.20;;;;;;;12.03;60.85;100235.84;5056120;28;20129;-84
2021/04/19 04:50:13;;;;;;;10.48;8.70;;;;;;;12.02;60.82;100236.78;5055009;28;20102;-84
2021/04/19 04:52:51;;;;;;;10.80;8.70;;;;;;;12.03;60.94;100232.38;5055883;28;20505;-85
2021/04/19 04:55:19;;;;;;;13.18;9.23;;;;;;;12.04;60.49;100231.44;5055629;28;20053;-84
2021/04/19 04:57:47;;;;;;;10.75;8.50;;;;;;;12.04;60.12;100240.19;5055990;28;20059;-84
2021/04/19 05:00:19;;;;;;;9.68;7.80;;;;;;;12.02;60.89;100231.50;5055994;28;20064;-85
2021/04/19 05:02:48;;;;;;;10.23;8.18;;;;;;;12.04;60.63;100236.72;5056003;28;20049;-85
2021/04/19 05:05:16;;;;;;;12.32;8.68;;;;;;;12.04;60.30;100234.06;5055388;28;20049;-84
2021/04/19 05:07:44;;;;;;;10.38;8.55;;;;;;;12.05;60.37;100241.03;5055450;28;20052;-85
2021/04/19 05:10:11;;;;;;;9.98;7.88;;;;;;;12.05;60.33;100235.75;5054649;28;20049;-85
2021/04/19 05:12:38;;;;;;;9.02;7.82;;;;;;;12.05;60.36;100236.66;5054207;28;20052;-86
2021/04/19 05:15:09;;;;;;;9.63;7.85;;;;;;;12.05;60.40;100236.66;5053862;28;20053;-85
2021/04/19 05:17:36;;;;;;;9.00;7.50;;;;;;;12.05;60.29;100235.75;5054066;28;20060;-85
2021/04/19 05:20:07;;;;;;;9.50;7.32;;;;;;;12.04;60.82;100234.91;5055506;28;20091;-85
2021/04/19 05:22:34;;;;;;;11.80;8.30;;;;;;;12.06;60.12;100240.13;5055084;28;20571;-85
2021/04/19 05:25:01;;;;;;;8.90;7.32;;;;;;;12.04;60.26;100237.53;5054769;28;20056;-85
2021/04/19 05:27:28;;;;;;;9.18;7.80;;;;;;;12.04;60.18;100231.44;5054393;28;20057;-85
2021/04/19 05:29:55;;;;;;;11.32;8.43;;;;;;;12.04;60.04;100239.34;5054924;28;20052;-85
2021/04/19 05:32:22;;;;;;;10.75;8.50;;;;;;;12.03;60.08;100242.94;5055261;28;20079;-85
2021/04/19 05:34:49;;;;;;;11.40;8.35;;;;;;;12.01;60.73;100235.09;5054517;28;20053;-85
2021/04/19 05:37:19;;;;;;;9.95;8.18;;;;;;;12.04;60.55;100244.63;5054029;28;20048;-85
2021/04/19 05:39:45;;;;;;;11.40;9.10;;;;;;;12.04;60.44;100248.09;5053937;28;20052;-83
2021/04/19 05:42:13;;;;;;;10.93;8.65;;;;;;;12.05;60.77;100248.97;5054038;28;20102;-84
2021/04/19 05:44:40;;;;;;;12.63;9.40;;;;;;;12.07;60.70;100250.59;5054659;28;20056;-83
2021/04/19 05:47:07;;;;;;;10.20;8.50;;;;;;;12.10;60.80;100254.84;5054722;28;20056;-83
2021/04/19 05:49:34;;;;;;;12.88;9.98;;;;;;;12.14;60.75;100253.75;5054944;28;20049;-83
2021/04/19 05:52:03;;;;;;;12.68;9.75;;;;;;;12.17;60.97;100242.16;5054761;28;20547;-83
2021/04/19 05:54:30;;;;;;;12.65;9.68;;;;;;;12.19;60.75;100243.78;5054122;28;20049;-83
2021/04/19 05:57:02;;;;;;;15.57;10.05;;;;;;;12.19;61.65;100246.44;5053594;28;20060;-83
2021/04/19 05:59:44;;;;;;;14.25;10.85;;;;;;;12.23;61.46;100249.75;5054885;28;20056;-83
2021/04/19 06:02:13;;;;;;;16.67;11.75;;;;;;;12.27;60.64;100251.28;5054707;28;20049;-83
2021/04/19 06:04:48;;;;;;;14.73;11.90;;;;;;;12.25;61.00;100253.16;5053902;28;20520;-83
2021/04/19 06:10:17;;;;;;;15.68;11.98;;;;;;;12.24;61.08;100267.28;5068375;22;20053;-85
2021/04/19 06:12:52;;;;;;;16.55;12.18;;;;;;;12.22;61.21;100272.66;5033198;28;20049;-85
2021/04/19 06:15:22;;;;;;;13.43;10.73;;;;;;;12.22;60.48;100277.06;5033634;28;20049;-84
2021/04/19 06:17:51;;;;;;;13.80;10.93;;;;;;;12.19;60.60;100282.53;5033262;28;20053;-85
2021/04/19 06:20:21;;;;;;;14.25;11.20;;;;;;;12.17;60.63;100281.75;5034226;28;20064;-85
2021/04/19 06:22:52;;;;;;;15.40;11.55;;;;;;;12.13;61.06;100278.44;5034380;28;20088;-85
2021/04/19 06:25:20;;;;;;;14.07;11.00;;;;;;;12.11;60.34;100275.03;5033727;28;20061;-84
2021/04/19 06:27:48;;;;;;;15.65;11.27;;;;;;;12.07;60.21;100284.06;5034168;28;20068;-84
2021/04/19 06:30:16;;;;;;;15.77;11.85;;;;;;;12.04;60.39;100277.13;5034011;28;20055;-85
2021/04/19 06:32:45;;;;;;;15.07;12.13;;;;;;;12.02;60.68;100281.66;5033256;28;20061;-84
2021/04/19 06:35:13;;;;;;;13.77;10.90;;;;;;;12.02;61.08;100279.00;5032227;28;20061;-85
2021/04/19 06:37:39;;;;;;;16.70;11.65;;;;;;;12.03;60.87;100283.34;5032927;28;20053;-84
2021/04/19 06:40:06;;;;;;;14.05;11.20;;;;;;;12.04;61.11;100285.03;5032588;28;20049;-84
2021/04/19 06:42:33;;;;;;;16.23;12.40;;;;;;;12.05;61.17;100288.53;5032901;28;20456;-84
2021/04/19 06:45:01;;;;;;;14.60;11.50;;;;;;;12.07;61.33;100294.63;5033675;28;20107;-85
2021/04/19 06:47:30;;;;;;;13.85;11.35;;;;;;;12.09;61.08;100298.88;5032514;28;20517;-85
2021/04/19 06:49:57;;;;;;;15.95;11.25;;;;;;;12.10;61.11;100290.03;5032579;28;20058;-84
2021/04/19 06:52:25;;;;;;;13.80;11.68;;;;;;;12.10;61.25;100295.31;5034320;28;20501;-84
2021/04/19 06:54:51;;;;;;;16.52;12.23;;;;;;;12.12;61.20;100290.78;5033482;28;20057;-84
2021/04/19 06:57:19;;;;;;;14.93;11.85;;;;;;;12.12;61.35;100288.13;5035895;28;20061;-84
2021/04/19 06:59:46;;;;;;;17.17;12.13;;;;;;;12.15;61.67;100294.19;5035314;28;20049;-84
2021/04/19 07:02:20;;;;;;;14.98;11.98;;;;;;;12.19;62.28;100296.56;5035133;28;20049;-85
2021/04/19 07:04:51;;;;;;;16.67;11.95;;;;;;;12.24;62.67;100288.41;5034563;28;20068;-84
2021/04/19 07:07:29;;;;;;;14.70;11.43;;;;;;;12.31;62.96;100288.91;5016116;28;20050;-84
2021/04/19 07:09:57;;;;;;;17.20;12.02;;;;;;;12.42;62.13;100297.09;5013893;28;20076;-85
2021/04/19 07:12:24;;;;;;;15.40;11.80;;;;;;;12.52;61.57;100300.03;5014125;28;20050;-84
2021/04/19 07:14:54;;;;;;;18.65;13.00;;;;;;;12.58;61.88;100301.50;5013673;28;20058;-84
2021/04/19 07:17:21;;;;;;;19.10;13.55;;;;;;;12.64;61.34;100303.81;5013843;28;20060;-84
2021/04/19 07:19:48;;;;;;;18.55;13.45;;;;;;;12.68;60.95;100292.13;5013622;28;20080;-84
2021/04/19 07:22:16;;;;;;;17.30;13.23;;;;;;;12.70;60.96;100297.28;5015091;28;20050;-84
2021/04/19 07:24:42;;;;;;;17.67;13.13;;;;;;;12.70;60.80;100302.56;5012712;28;20491;-84
2021/04/19 07:27:12;;;;;;;21.83;14.45;;;;;;;12.70;61.41;100299.94;5013564;28;20513;-85
2021/04/19 07:29:43;;;;;;;19.45;13.40;;;;;;;12.69;61.27;100298.25;5015427;28;20085;-85
2021/04/19 07:32:10;;;;;;;18.58;13.07;;;;;;;12.70;60.94;100292.00;5014627;28;20128;-84
2021/04/19 07:34:37;;;;;;;21.35;14.25;;;;;;;12.71;61.08;100293.75;5015441;28;20065;-85
2021/04/19 07:37:05;;;;;;;19.15;13.25;;;;;;;12.74;61.53;100298.81;5014351;28;20050;-84
2021/04/19 07:39:38;;;;;;;20.98;13.50;;;;;;;12.77;61.49;100286.31;5013940;28;20132;-85
2021/04/19 07:42:07;;;;;;;17.77;13.15;;;;;;;12.83;61.52;100293.03;5014018;28;20081;-85
2021/04/19 07:44:46;;;;;;;17.60;12.90;;;;;;;12.87;62.02;100296.34;5013913;28;20050;-85
2021/04/19 07:47:30;;;;;;;16.48;12.32;;;;;;;12.92;61.43;100296.06;5015076;28;20050;-85
2021/04/19 07:50:01;;;;;;;19.10;12.70;;;;;;;12.96;61.07;100301.09;5013674;28;20057;-85
2021/04/19 07:52:30;;;;;;;18.13;12.57;;;;;;;12.98;60.82;100296.53;5013100;28;20088;-84
2021/04/19 07:55:09;;;;;;;17.70;13.38;;;;;;;12.99;61.35;100300.06;5013840;28;20061;-84
2021/04/19 07:57:55;;;;;;;18.40;12.93;;;;;;;13.02;60.69;100297.25;5013505;28;20512;-85
2021/04/19 08:00:36;;;;;;;19.15;12.70;;;;;;;12.99;61.54;100298.28;5014985;28;20050;-85
2021/04/19 08:03:10;;;;;;;17.98;12.57;;;;;;;12.99;61.37;100306.19;5014633;28;20054;-84
2021/04/19 08:05:42;;;;;;;16.80;12.88;;;;;;;13.01;60.74;100300.84;5011570;28;20128;-85
2021/04/19 08:08:09;;;;;;;17.90;12.23;;;;;;;13.01;60.33;100303.47;5011856;28;20061;-84
2021/04/19 08:10:38;;;;;;;15.90;12.38;;;;;;;12.99;60.46;100298.28;5014506;28;20069;-85
2021/04/19 08:13:09;;;;;;;18.30;13.60;;;;;;;12.97;60.72;100300.13;5016788;28;20490;-85
2021/04/19 08:15:38;;;;;;;18.67;13.02;;;;;;;12.97;61.10;100301.94;5016660;28;20057;-84
2021/04/19 08:18:15;;;;;;;22.70;13.38;;;;;;;12.96;61.78;100298.44;5016895;28;20049;-85
2021/04/19 08:20:53;;;;;;;17.88;13.02;;;;;;;12.98;61.90;100301.00;5015495;28;20057;-85
2021/04/19 08:23:21;;;;;;;19.08;13.13;;;;;;;13.06;61.10;100297.91;5016732;28;20056;-86
2021/04/19 08:25:52;;;;;;;22.10;13.57;;;;;;;13.08;61.72;100299.50;5015635;28;20058;-85
2021/04/19 08:28:22;;;;;;;17.67;12.95;;;;;;;13.18;61.70;100299.81;5016201;28;20141;-86
2021/04/19 08:30:55;;;;;;;16.83;12.95;;;;;;;13.28;62.07;100295.69;5016712;28;20065;-86
2021/04/19 08:33:25;;;;;;;17.75;12.50;;;;;;;13.41;61.71;100301.09;5015790;28;20081;-86
2021/04/19 08:35:52;;;;;;;16.77;12.43;;;;;;;13.54;61.63;100295.94;5016465;28;20054;-85
2021/04/19 08:38:21;;;;;;;15.82;12.07;;;;;;;13.67;61.46;100297.84;5014817;28;20077;-85
2021/04/19 08:40:50;;;;;;;17.17;12.70;;;;;;;13.81;61.46;100302.28;5014939;28;20058;-86
2021/04/19 08:43:24;;;;;;;17.25;12.68;;;;;;;13.93;61.21;100298.00;5015644;28;20060;-85
2021/04/19 08:45:51;;;;;;;15.65;12.60;;;;;;;14.07;60.70;100303.31;5016134;28;20058;-86
2021/04/19 08:48:17;;;;;;;16.52;13.23;;;;;;;14.19;60.48;100293.72;5015406;28;20050;-86
2021/04/19 08:50:46;;;;;;;17.90;12.05;;;;;;;14.31;60.26;100291.22;5016453;28;20050;-86
2021/04/19 08:53:14;;;;;;;17.65;12.23;;;;;;;14.40;60.19;100295.97;5016718;28;20046;-86
2021/04/19 08:55:42;;;;;;;18.88;13.60;;;;;;;14.51;60.15;100289.09;5015054;28;20052;-86
2021/04/19 08:58:09;;;;;;;17.88;12.75;;;;;;;14.60;60.03;100288.50;5015188;28;20065;-85
2021/04/19 09:00:42;;;;;;;18.88;12.60;;;;;;;14.68;59.60;100285.34;5016262;28;20056;-86
2021/04/19 09:03:09;;;;;;;17.77;12.83;;;;;;;14.80;59.22;100289.84;5016573;28;20049;-85
2021/04/19 09:05:35;;;;;;;16.80;12.57;;;;;;;14.87;58.58;100289.47;5014804;28;20053;-85
2021/04/19 09:08:07;;;;;;;18.02;12.77;;;;;;;14.90;58.75;100295.41;5016140;28;20050;-85
2021/04/19 09:10:51;;;;;;;17.67;12.88;;;;;;;14.93;58.90;100295.22;5014704;28;20054;-85
2021/04/19 09:13:31;;;;;;;18.27;12.45;;;;;;;15.01;58.88;100294.69;5014943;28;20054;-86
2021/04/19 09:16:20;;;;;;;15.25;12.25;;;;;;;15.11;58.59;100289.63;5016013;28;20054;-86
2021/04/19 09:18:56;;;;;;;16.20;12.30;;;;;;;15.18;58.28;100298.84;5014739;28;20100;-86
2021/04/19 09:21:49;;;;;;;18.45;11.82;;;;;;;15.20;57.70;100304.91;5014432;28;20053;-86
2021/04/19 09:24:19;;;;;;;17.25;11.98;;;;;;;15.25;57.38;100307.22;5014221;28;20454;-86
2021/04/19 09:26:58;;;;;;;17.90;12.07;;;;;;;15.24;57.03;100305.53;5014987;28;20053;-86
2021/04/19 09:29:24;;;;;;;16.42;11.45;;;;;;;15.24;57.57;100303.75;5015721;28;20041;-86
2021/04/19 09:32:04;;;;;;;16.42;11.95;;;;;;;15.22;58.39;100307.44;5014638;28;20050;-85
2021/04/19 09:34:49;;;;;;;17.88;11.85;;;;;;;15.29;58.19;100300.75;5014260;28;20054;-85
2021/04/19 09:37:39;;;;;;;16.02;11.90;;;;;;;15.40;59.42;100305.31;5014602;28;20053;-86
2021/04/19 09:40:15;;;;;;;16.58;11.35;;;;;;;15.58;58.48;100302.34;5013610;28;20125;-86
2021/04/19 09:42:57;;;;;;;15.27;11.25;;;;;;;15.76;58.68;100300.22;5014446;28;20061;-85
2021/04/19 09:45:41;;;;;;;15.57;12.38;;;;;;;15.93;58.00;100304.38;5013924;28;20530;-85
2021/04/19 09:48:27;;;;;;;14.43;12.05;;;;;;;16.06;57.06;100292.88;5014033;28;20065;-85
2021/04/19 09:50:57;;;;;;;14.23;11.63;;;;;;;16.17;56.24;100292.97;5013932;28;20517;-86
2021/04/19 09:53:25;;;;;;;15.65;11.40;;;;;;;16.20;55.74;100292.75;5015322;28;20053;-86
2021/04/19 09:55:51;;;;;;;16.15;12.15;;;;;;;16.15;55.38;100294.91;5014025;28;20080;-85
2021/04/19 09:58:18;;;;;;;16.25;12.05;;;;;;;16.07;55.20;100298.09;5013816;28;20521;-85
2021/04/19 10:00:52;;;;;;;15.98;12.07;;;;;;;15.99;55.34;100298.63;5014175;28;20057;-86
2021/04/19 10:03:19;;;;;;;16.02;12.25;;;;;;;15.90;55.23;100289.47;5014078;28;20050;-86
2021/04/19 10:05:48;;;;;;;17.83;13.30;;;;;;;15.83;55.49;100292.69;5014681;28;20050;-86
2021/04/19 10:08:15;;;;;;;20.45;12.35;;;;;;;15.78;55.90;100293.03;5013398;28;20054;-86
2021/04/19 10:10:42;;;;;;;16.33;12.75;;;;;;;15.74;56.19;100292.38;5014225;28;20050;-86
2021/04/19 10:13:08;;;;;;;16.50;13.13;;;;;;;15.75;56.00;100291.41;5014861;28;20054;-86
2021/04/19 10:15:34;;;;;;;17.20;12.68;;;;;;;15.78;56.16;100285.06;5013419;28;20050;-86
2021/04/19 10:18:11;;;;;;;18.25;12.65;;;;;;;15.80;55.96;100288.44;5013664;28;20056;-86
2021/04/19 10:20:38;;;;;;;19.35;11.73;;;;;;;15.88;55.35;100296.72;5014982;28;20058;-86
2021/04/19 10:23:09;;;;;;;17.70;11.80;;;;;;;15.92;55.16;100292.03;5014608;28;20053;-86
2021/04/19 10:25:47;;;;;;;19.67;11.55;;;;;;;15.93;55.51;100288.44;5014532;28;20065;-86
2021/04/19 10:28:41;;;;;;;16.15;11.75;;;;;;;15.97;55.53;100279.31;5014785;28;20449;-86
2021/04/19 10:31:16;;;;;;;15.50;12.55;;;;;;;16.03;54.99;100291.28;5014790;28;20053;-86
2021/04/19 10:33:46;;;;;;;17.33;12.25;;;;;;;16.05;54.74;100280.56;5012615;28;20085;-86
2021/04/19 10:36:17;;;;;;;17.35;12.20;;;;;;;16.04;54.07;100292.16;5013529;28;20104;-86
2021/04/19 10:38:51;;;;;;;18.10;12.30;;;;;;;16.01;54.15;100291.41;5013032;28;20418;-86
2021/04/19 10:41:38;;;;;;;15.38;11.30;;;;;;;16.01;54.34;100287.91;5014433;28;20434;-86
2021/04/19 10:44:08;;;;;;;12.60;10.57;;;;;;;16.11;54.68;100285.44;5013070;28;20557;-86
2021/04/19 10:46:38;;;;;;;17.08;11.77;;;;;;;16.14;54.48;100287.88;5014310;28;20046;-86
2021/04/19 10:49:05;;;;;;;16.88;11.30;;;;;;;16.21;54.73;100291.78;5012994;28;20140;-86
2021/04/19 10:51:36;;;;;;;13.27;10.50;;;;;;;16.26;54.05;100294.94;5014294;28;20411;-86
2021/04/19 10:54:08;;;;;;;15.88;10.88;;;;;;;16.39;54.64;100284.28;5012996;28;20057;-86
2021/04/19 10:56:39;;;;;;;13.63;11.52;;;;;;;16.57;55.04;100283.03;5013129;28;20450;-86
2021/04/19 10:59:07;;;;;;;13.63;11.02;;;;;;;16.78;55.94;100288.56;5013865;28;20053;-86
2021/04/19 11:01:35;;;;;;;16.23;11.73;;;;;;;17.09;56.46;100283.63;5013070;28;20064;-86
2021/04/19 11:04:03;;;;;;;14.43;11.68;;;;;;;17.52;56.24;100281.25;5013846;28;20081;-86
2021/04/19 11:06:31;;;;;;;16.35;10.88;;;;;;;18.01;56.30;100276.53;5012873;28;20088;-86
2021/04/19 11:08:58;;;;;;;12.85;10.82;;;;;;;18.55;54.90;100268.69;5012629;28;20049;-86
2021/04/19 11:11:37;;;;;;;15.23;10.52;;;;;;;19.10;52.69;100270.38;5013984;28;20054;-86
2021/04/19 11:14:17;;;;;;;13.77;10.68;;;;;;;19.63;51.45;100270.38;5012810;28;20049;-86
2021/04/19 11:16:59;;;;;;;13.00;10.75;;;;;;;20.03;51.05;100274.03;5012527;28;20054;-86
2021/04/19 11:19:50;;;;;;;13.97;10.03;;;;;;;20.40;50.46;100265.41;5012747;28;20410;-86
2021/04/19 11:22:21;;;;;;;10.70;9.43;;;;;;;20.66;47.92;100272.88;5013708;28;20061;-86
2021/04/19 11:25:33;;;;;;;13.68;10.23;;;;;;;20.73;47.61;100270.47;5012706;28;20104;-86
2021/04/19 11:28:21;;;;;;;11.85;10.23;;;;;;;20.76;47.67;100264.84;5012650;28;20057;-86
2021/04/19 11:30:49;;;;;;;12.07;10.77;;;;;;;20.85;47.75;100263.16;5012730;28;20454;-86
2021/04/19 11:33:26;;;;;;;11.57;10.02;;;;;;;20.80;45.79;100265.41;5012537;28;20053;-86
2021/04/19 11:35:58;;;;;;;13.02;10.07;;;;;;;;;;5012507;28;20053;-86